Terminal Aerodrome Forecast
Issued by NWS

Home | Current Version | Previous Version | Text Only | Print | Product List | Glossary On
Versions: 1 2 3 4 5 6 7 8 9 10 11 12 13 14
000
FTUS44 KTSA 202100 AAA
TAFBVO
TAF AMD
KBVO 202105Z 2021/2118 16013G19KT P6SM SKC
     FM210100 18007KT P6SM SKC
     FM211500 19014G20KT P6SM SCT250=

USA.gov is the U.S. government's official web portal to all federal, state and local government web resources and services.